ウラジオストク の空港の天気 - METARとTAF

ウラジオストク空港 ( UHWW / VVO ) - ロシア ウラジオストク
飛行場実況気象(Metar)
観測時間05/20 11:00 VLAT (05/20 01:00 UTC)
風向・風速南西 10m/s 瞬間風速15m/s
視程9000m
天気現象弱いしゅう雨
全天の8割程度の雲 雲底高度 240m
全天の8割程度の雲 雲底高度 610m
気温14℃
湿度94%
気圧994hPa
METARUHWW 200100Z 22010G15MPS 9000 -SHRA BKN008 BKN020CB 14/13 Q0994 R25L/290251 TEMPO 21012G17MPS RMK MT OBSC QFE744
過去の天気等 Google飛行場航空写真 Wunderground天気予報

過去48時間のMETAR

飛行場予報(TAF)
発表時間: 5/20 09:45 VLAT (5/19 23:45 UTC)
予報対象時間: 20日10時 VLAT ~ 21日10時 VLAT
風向・風速南 10m/s 瞬間風速 15m/s
視程3100m
天気現象弱いしゅう雨
全天の8割程度の雲 雲底高度 340m
全天の8割程度の積乱雲 雲底高度 460m
20日10時 VLAT ~ 20日18時 VLAT に一時的に
風向・風速南 18m/s 瞬間風速 23m/s
視程500m
天気現象強い雷雨
全天の8割程度の雲 雲底高度 90m
全天の8割程度の積乱雲 雲底高度 400m
20日18時 VLAT から
風向・風速西南西 3m/s
視程3500m
天気現象弱いしゅう雨 もや
全天の8割程度の雲 雲底高度 340m
全天の8割程度の積乱雲 雲底高度 520m
TAF AMD UHWW 192345Z 2000/2024 18010G15MPS 3100 -SHRA BKN011 BKN015CB
TEMPO 2000/2008 18018G23MPS 0500 +TSRA BKN003 BKN013CB
FM200800 24003MPS 3500 -SHRA BR BKN011 BKN017CB